Time;durP1;ratioP1;P1;durP2;ratioP2;P2;SDS_P1;SDS_P2;PMS_P1;PMS_P2;Temp;Humidity;BMP_temperature;BMP_pressure;BME280_temperature;BME280_humidity;BME280_pressure;Samples;Min_cycle;Max_cycle;Signal;HPM_P1;HPM_P2
2022/09/17 00:01:00;;;;;;;1.50;1.10;;;10.90;99.90;;;;;;5014509;28;20295;-79
2022/09/17 00:03:28;;;;;;;1.35;1.00;;;10.90;99.90;;;;;;5018195;28;20323;-80
2022/09/17 00:06:00;;;;;;;1.20;1.10;;;10.90;99.90;;;;;;5011172;28;20224;-79
2022/09/17 00:08:27;;;;;;;1.70;0.90;;;10.90;99.90;;;;;;5007010;28;20248;-79
2022/09/17 00:10:54;;;;;;;1.35;0.90;;;10.90;99.90;;;;;;5009966;28;20204;-79
2022/09/17 00:13:22;;;;;;;1.35;1.23;;;10.90;99.90;;;;;;5009403;28;20229;-79
2022/09/17 00:15:51;;;;;;;1.45;1.00;;;10.90;99.90;;;;;;5002280;28;20352;-79
2022/09/17 00:18:18;;;;;;;1.08;0.95;;;10.90;99.90;;;;;;5008805;28;20205;-80
2022/09/17 00:20:46;;;;;;;1.65;1.55;;;10.80;99.90;;;;;;4996155;28;20231;-79
2022/09/17 00:23:14;;;;;;;1.20;0.90;;;10.90;99.90;;;;;;5008505;28;20222;-79
2022/09/17 00:25:43;;;;;;;2.20;1.10;;;10.80;99.90;;;;;;5009918;28;20227;-80
2022/09/17 00:28:10;;;;;;;1.10;0.90;;;10.90;99.90;;;;;;5008269;28;20298;-79
2022/09/17 00:30:40;;;;;;;1.35;1.20;;;10.90;99.90;;;;;;5018804;28;20201;-79
2022/09/17 00:33:09;;;;;;;1.55;0.93;;;10.90;99.90;;;;;;5014610;28;20751;-79
2022/09/17 00:35:36;;;;;;;1.52;0.90;;;10.90;99.90;;;;;;5009874;28;20704;-79
2022/09/17 00:38:03;;;;;;;1.60;1.27;;;10.90;99.90;;;;;;5000354;28;20288;-79
2022/09/17 00:40:30;;;;;;;2.63;1.00;;;10.90;99.90;;;;;;5008458;28;20271;-79
2022/09/17 00:42:57;;;;;;;2.72;1.20;;;10.90;99.90;;;;;;5006678;28;20675;-80
2022/09/17 00:45:24;;;;;;;1.10;1.00;;;10.90;99.90;;;;;;5007361;28;20212;-79
2022/09/17 00:47:57;;;;;;;1.83;1.20;;;10.90;99.90;;;;;;5009299;28;20205;-79
2022/09/17 00:50:29;;;;;;;3.25;1.10;;;10.90;99.90;;;;;;5006335;28;20400;-79
2022/09/17 00:52:59;;;;;;;3.10;0.90;;;10.90;99.90;;;;;;5024684;28;20299;-80
2022/09/17 00:55:30;;;;;;;1.27;1.17;;;10.90;99.90;;;;;;5007757;28;20286;-80
2022/09/17 00:57:59;;;;;;;1.30;1.20;;;10.80;99.90;;;;;;5007806;28;20228;-79
2022/09/17 01:00:28;;;;;;;2.05;1.00;;;10.80;99.90;;;;;;5008389;28;20658;-79
2022/09/17 01:02:55;;;;;;;3.50;1.00;;;10.80;99.90;;;;;;5014388;28;20317;-79
2022/09/17 01:05:32;;;;;;;1.70;1.38;;;10.70;99.90;;;;;;5011187;28;20331;-79
2022/09/17 01:08:13;;;;;;;1.20;1.10;;;10.70;99.90;;;;;;5008824;28;20620;-80
2022/09/17 01:10:55;;;;;;;1.40;1.30;;;10.70;99.90;;;;;;5012100;28;20258;-79
2022/09/17 01:13:32;;;;;;;2.80;1.30;;;10.60;99.90;;;;;;5007645;28;20340;-79
2022/09/17 01:16:07;;;;;;;1.40;1.30;;;10.60;99.90;;;;;;5008532;28;20198;-79
2022/09/17 01:18:44;;;;;;;1.48;1.13;;;10.60;99.90;;;;;;5008364;28;20208;-79
2022/09/17 01:21:40;;;;;;;2.85;1.50;;;10.60;99.90;;;;;;5013014;28;20686;-79
2022/09/17 01:24:37;;;;;;;2.05;1.08;;;10.50;99.90;;;;;;4996606;28;20228;-79
2022/09/17 01:27:30;;;;;;;1.92;1.35;;;10.50;99.90;;;;;;5006953;28;20208;-78
2022/09/17 01:30:21;;;;;;;1.40;1.27;;;10.50;99.90;;;;;;5008070;28;20212;-79
2022/09/17 01:32:56;;;;;;;2.10;1.35;;;10.50;99.90;;;;;;5006502;28;20226;-79
2022/09/17 01:35:33;;;;;;;2.70;1.13;;;10.50;99.90;;;;;;4994997;28;20204;-80
2022/09/17 01:38:05;;;;;;;2.47;1.27;;;10.50;99.90;;;;;;5007959;28;20285;-79
2022/09/17 01:40:39;;;;;;;2.30;1.58;;;10.50;99.90;;;;;;5007254;28;20209;-79
2022/09/17 01:43:10;;;;;;;1.90;1.40;;;10.50;99.90;;;;;;5009860;28;20228;-79
2022/09/17 01:45:42;;;;;;;1.85;1.40;;;10.50;99.90;;;;;;5007891;28;20226;-79
2022/09/17 01:48:16;;;;;;;1.58;1.30;;;10.60;99.90;;;;;;5011117;28;20202;-80
2022/09/17 01:50:49;;;;;;;1.42;1.30;;;10.60;99.90;;;;;;5002601;28;20205;-79
2022/09/17 01:53:19;;;;;;;1.55;1.30;;;10.60;99.90;;;;;;5008222;28;20227;-80
2022/09/17 01:55:48;;;;;;;1.73;1.60;;;10.70;99.90;;;;;;5003148;28;20526;-79
2022/09/17 01:58:20;;;;;;;3.05;1.70;;;10.70;99.90;;;;;;5007316;28;20567;-79
2022/09/17 02:00:53;;;;;;;6.57;1.40;;;10.60;99.90;;;;;;5009306;28;20222;-79
2022/09/17 02:03:25;;;;;;;1.65;1.35;;;10.60;99.90;;;;;;5008246;28;20232;-78
2022/09/17 02:05:57;;;;;;;3.08;1.50;;;10.60;99.90;;;;;;5008248;28;20671;-79
2022/09/17 02:08:27;;;;;;;2.38;1.70;;;10.50;99.90;;;;;;5008264;28;20250;-79
2022/09/17 02:10:58;;;;;;;1.65;1.40;;;10.50;99.90;;;;;;5007614;28;20288;-79
2022/09/17 02:13:32;;;;;;;3.15;1.38;;;10.50;99.90;;;;;;5016849;28;20303;-79
2022/09/17 02:16:04;;;;;;;3.40;1.80;;;10.50;99.90;;;;;;5012798;28;20205;-79
2022/09/17 02:18:38;;;;;;;3.20;1.70;;;10.50;99.90;;;;;;5025271;28;20623;-79
2022/09/17 02:21:10;;;;;;;3.10;1.60;;;10.50;99.90;;;;;;5011352;28;20292;-79
2022/09/17 02:23:45;;;;;;;1.70;1.10;;;10.50;99.90;;;;;;5014239;28;20228;-79
2022/09/17 02:26:17;;;;;;;1.50;1.15;;;10.50;99.90;;;;;;5010509;28;20306;-79
2022/09/17 02:28:47;;;;;;;1.35;1.10;;;10.50;99.90;;;;;;5014030;28;20195;-79
2022/09/17 02:31:15;;;;;;;3.85;1.60;;;10.40;99.90;;;;;;5009643;28;20805;-80
2022/09/17 02:33:47;;;;;;;2.40;1.92;;;10.40;99.90;;;;;;5011038;28;20205;-79
2022/09/17 02:36:15;;;;;;;2.13;1.20;;;10.40;99.90;;;;;;5010480;28;20299;-79
2022/09/17 02:38:44;;;;;;;2.55;1.00;;;10.40;99.90;;;;;;5011965;28;20207;-79
2022/09/17 02:41:16;;;;;;;1.50;1.40;;;10.40;99.90;;;;;;5009572;28;20315;-79
2022/09/17 02:43:51;;;;;;;2.40;1.65;;;10.30;99.90;;;;;;5010111;28;20323;-80
2022/09/17 02:46:38;;;;;;;1.70;1.23;;;10.30;99.90;;;;;;5008676;28;20290;-79
2022/09/17 02:49:20;;;;;;;1.50;1.33;;;10.30;99.90;;;;;;5010973;28;20204;-80
2022/09/17 02:51:56;;;;;;;2.97;1.38;;;10.30;99.90;;;;;;5006292;28;20723;-79
2022/09/17 02:54:29;;;;;;;1.83;1.30;;;10.40;99.90;;;;;;5019944;28;20203;-79
2022/09/17 02:57:06;;;;;;;2.65;1.40;;;10.40;99.90;;;;;;5007347;28;20206;-80
2022/09/17 02:59:41;;;;;;;2.45;1.27;;;10.40;99.90;;;;;;5006500;28;20200;-79
2022/09/17 03:02:15;;;;;;;2.65;1.30;;;10.40;99.90;;;;;;5012691;28;20219;-79
2022/09/17 03:04:46;;;;;;;5.25;1.60;;;10.30;99.90;;;;;;5007451;28;20233;-80
2022/09/17 03:07:14;;;;;;;3.70;1.30;;;10.30;99.90;;;;;;5012764;28;20565;-79
2022/09/17 03:09:42;;;;;;;2.05;1.40;;;10.30;99.90;;;;;;5018190;28;20205;-79
2022/09/17 03:12:10;;;;;;;3.00;1.60;;;10.30;99.90;;;;;;5009949;28;20224;-79
2022/09/17 03:14:37;;;;;;;1.92;1.73;;;10.30;99.90;;;;;;5010923;28;20216;-79
2022/09/17 03:17:04;;;;;;;1.85;1.55;;;10.20;99.90;;;;;;5007419;28;20215;-80
2022/09/17 03:19:31;;;;;;;4.70;1.85;;;10.20;99.90;;;;;;5012418;28;20225;-79
2022/09/17 03:22:00;;;;;;;3.47;1.80;;;10.20;99.90;;;;;;5010633;28;20217;-79
2022/09/17 03:24:26;;;;;;;3.30;1.60;;;10.10;99.90;;;;;;5018218;28;20230;-79
2022/09/17 03:26:54;;;;;;;2.00;1.60;;;10.10;99.90;;;;;;5010594;28;20226;-80
2022/09/17 03:29:20;;;;;;;3.30;1.92;;;10.10;99.90;;;;;;5010652;28;20205;-78
2022/09/17 03:31:47;;;;;;;2.05;1.55;;;10.00;99.90;;;;;;5010030;28;20316;-80
2022/09/17 03:34:14;;;;;;;3.53;1.70;;;10.00;99.90;;;;;;5012115;28;20286;-79
2022/09/17 03:36:43;;;;;;;2.22;1.60;;;10.00;99.90;;;;;;5010957;28;20215;-79
2022/09/17 03:39:11;;;;;;;4.50;1.80;;;10.00;99.90;;;;;;5012997;28;20678;-79
2022/09/17 03:41:39;;;;;;;1.95;1.50;;;10.00;99.90;;;;;;5009551;28;20260;-79
2022/09/17 03:44:06;;;;;;;2.58;1.90;;;9.90;99.90;;;;;;5010437;28;20224;-79
2022/09/17 03:46:33;;;;;;;2.20;1.70;;;9.90;99.90;;;;;;5010811;28;20227;-79
2022/09/17 03:49:00;;;;;;;4.65;1.58;;;9.90;99.90;;;;;;5023655;28;20192;-79
2022/09/17 03:51:27;;;;;;;2.72;1.80;;;9.90;99.90;;;;;;5010177;28;20224;-79
2022/09/17 03:53:54;;;;;;;3.75;1.98;;;9.90;99.90;;;;;;5009971;28;20279;-79
2022/09/17 03:56:22;;;;;;;2.30;1.60;;;9.80;99.90;;;;;;5007992;28;20204;-78
2022/09/17 03:58:49;;;;;;;3.70;2.20;;;9.80;99.90;;;;;;5010653;28;20203;-79
2022/09/17 04:01:16;;;;;;;4.30;1.70;;;9.80;99.90;;;;;;5010583;28;20224;-78
2022/09/17 04:03:44;;;;;;;2.28;1.50;;;9.80;99.90;;;;;;5010601;28;20264;-79
2022/09/17 04:06:11;;;;;;;2.95;1.65;;;9.80;99.90;;;;;;5008961;28;20250;-79
2022/09/17 04:08:38;;;;;;;2.72;1.75;;;9.80;99.90;;;;;;5010373;28;20200;-79
2022/09/17 04:11:06;;;;;;;2.28;1.85;;;9.80;99.90;;;;;;5010001;28;20202;-79
2022/09/17 04:13:34;;;;;;;1.90;1.80;;;9.80;99.90;;;;;;5006074;28;20210;-79
2022/09/17 04:16:02;;;;;;;1.85;1.65;;;9.80;99.90;;;;;;5011441;28;20196;-79
2022/09/17 04:18:29;;;;;;;3.10;1.90;;;9.80;99.90;;;;;;5015316;28;20627;-79
2022/09/17 04:20:57;;;;;;;6.63;2.08;;;9.80;99.90;;;;;;5010412;28;20706;-79
2022/09/17 04:23:23;;;;;;;4.80;1.98;;;9.80;99.90;;;;;;5008769;28;20216;-80
2022/09/17 04:25:50;;;;;;;3.53;1.92;;;9.80;99.90;;;;;;5003755;28;20222;-80
2022/09/17 04:28:17;;;;;;;2.65;1.88;;;9.80;99.90;;;;;;5006508;28;20206;-79
2022/09/17 04:30:47;;;;;;;3.78;1.75;;;9.90;99.90;;;;;;5009013;28;20547;-79
2022/09/17 04:33:15;;;;;;;3.33;2.00;;;10.00;99.90;;;;;;5008238;28;20204;-79
2022/09/17 04:35:42;;;;;;;3.88;1.85;;;9.90;99.90;;;;;;4999675;28;20235;-79
2022/09/17 04:38:09;;;;;;;4.07;2.08;;;9.90;99.90;;;;;;5008966;28;20200;-81
2022/09/17 04:40:36;;;;;;;5.40;2.38;;;10.00;99.90;;;;;;5002312;28;20231;-82
2022/09/17 04:43:03;;;;;;;3.97;2.22;;;10.00;99.90;;;;;;5009322;28;21016;-81
2022/09/17 04:45:32;;;;;;;4.57;1.90;;;10.00;99.90;;;;;;5012226;28;21277;-81
2022/09/17 04:48:01;;;;;;;4.45;1.90;;;10.00;99.90;;;;;;5001035;28;20192;-80
2022/09/17 04:50:28;;;;;;;1.88;1.75;;;10.00;99.90;;;;;;5006101;28;20207;-78
2022/09/17 04:52:55;;;;;;;3.67;1.98;;;10.00;99.90;;;;;;5004164;28;20285;-81
2022/09/17 04:55:22;;;;;;;4.10;2.28;;;10.10;99.90;;;;;;5006400;28;20197;-80
2022/09/17 04:57:50;;;;;;;3.75;2.50;;;10.00;99.90;;;;;;5010990;28;20198;-80
2022/09/17 05:00:18;;;;;;;4.22;2.67;;;10.10;99.90;;;;;;5011807;28;20280;-79
2022/09/17 05:02:47;;;;;;;2.30;2.10;;;10.10;99.90;;;;;;5024912;28;20217;-82
2022/09/17 05:05:16;;;;;;;3.90;2.40;;;10.10;99.90;;;;;;4998278;28;20236;-82
2022/09/17 05:07:43;;;;;;;3.95;2.45;;;10.00;99.90;;;;;;5011337;28;20199;-81
2022/09/17 05:10:12;;;;;;;3.67;2.75;;;10.00;99.90;;;;;;5002388;28;20663;-80
2022/09/17 05:12:39;;;;;;;3.75;2.33;;;10.00;99.90;;;;;;5013977;28;20223;-81
2022/09/17 05:15:07;;;;;;;4.47;2.30;;;10.00;99.90;;;;;;5007486;28;20659;-81
2022/09/17 05:17:34;;;;;;;5.07;2.33;;;9.90;99.90;;;;;;5006795;28;20699;-77
2022/09/17 05:20:02;;;;;;;2.50;2.30;;;9.90;99.90;;;;;;5004825;28;20205;-79
2022/09/17 05:22:30;;;;;;;2.58;2.13;;;9.90;99.90;;;;;;5009174;28;20218;-80
2022/09/17 05:24:57;;;;;;;4.68;2.65;;;9.90;99.90;;;;;;5007825;28;20258;-79
2022/09/17 05:27:24;;;;;;;4.60;2.70;;;9.90;99.90;;;;;;5002441;28;20687;-74
2022/09/17 05:29:51;;;;;;;5.10;2.10;;;9.90;99.90;;;;;;5009090;28;20199;-75
2022/09/17 05:32:18;;;;;;;4.45;2.60;;;9.80;99.90;;;;;;5009009;28;20253;-79
2022/09/17 05:34:45;;;;;;;4.53;2.60;;;9.80;99.90;;;;;;5007055;28;20207;-79
2022/09/17 05:37:12;;;;;;;3.50;2.42;;;9.80;99.90;;;;;;5006457;28;20259;-79
2022/09/17 05:39:41;;;;;;;4.28;3.03;;;9.80;99.90;;;;;;5008805;28;20227;-80
2022/09/17 05:42:08;;;;;;;2.60;2.25;;;9.80;99.90;;;;;;5010771;28;20246;-79
2022/09/17 05:44:35;;;;;;;5.22;2.67;;;9.80;99.90;;;;;;5000305;28;20233;-80
2022/09/17 05:47:02;;;;;;;4.97;2.40;;;9.90;99.90;;;;;;5002111;28;20205;-79
2022/09/17 05:49:29;;;;;;;3.42;2.90;;;9.90;99.90;;;;;;5007231;28;20196;-79
2022/09/17 05:51:56;;;;;;;8.35;3.10;;;9.90;99.90;;;;;;5007658;28;20273;-79
2022/09/17 05:54:23;;;;;;;4.20;2.63;;;10.00;99.90;;;;;;5010391;28;20201;-77
2022/09/17 05:56:54;;;;;;;5.35;2.50;;;10.00;99.90;;;;;;5008137;28;20201;-79
2022/09/17 05:59:21;;;;;;;3.97;2.65;;;10.10;99.90;;;;;;5013350;28;20669;-80
2022/09/17 06:01:49;;;;;;;3.72;2.30;;;10.20;99.90;;;;;;5009191;28;20244;-76
2022/09/17 06:04:17;;;;;;;5.22;3.38;;;10.30;99.90;;;;;;5004049;28;20253;-79
2022/09/17 06:06:44;;;;;;;4.85;2.90;;;10.40;99.90;;;;;;5013192;28;20203;-79
2022/09/17 06:09:12;;;;;;;6.10;3.13;;;10.50;99.90;;;;;;5013721;28;20655;-79
2022/09/17 06:11:39;;;;;;;3.15;2.85;;;10.40;99.90;;;;;;5011747;28;20700;-79
2022/09/17 06:14:08;;;;;;;9.23;2.70;;;10.30;99.90;;;;;;5013092;28;20212;-79
2022/09/17 06:16:35;;;;;;;5.70;2.85;;;10.30;99.90;;;;;;5009262;28;20285;-79
2022/09/17 06:19:03;;;;;;;3.67;2.80;;;10.30;99.90;;;;;;5012724;28;20236;-79
2022/09/17 06:21:30;;;;;;;5.45;2.60;;;10.20;99.90;;;;;;5014105;28;20224;-79
2022/09/17 06:23:57;;;;;;;2.83;2.58;;;10.40;99.90;;;;;;5013564;28;20242;-79
2022/09/17 06:26:24;;;;;;;3.65;2.50;;;10.30;99.90;;;;;;5012214;28;20236;-79
2022/09/17 06:28:51;;;;;;;4.68;2.40;;;10.30;99.90;;;;;;5011873;28;20293;-79
2022/09/17 06:31:19;;;;;;;2.67;2.25;;;10.30;99.90;;;;;;5014085;28;20315;-79
2022/09/17 06:33:48;;;;;;;4.20;2.58;;;10.30;99.90;;;;;;5012660;28;20205;-78
2022/09/17 06:36:15;;;;;;;4.43;2.53;;;10.30;99.90;;;;;;5013025;28;20669;-79
2022/09/17 06:38:42;;;;;;;2.63;2.30;;;10.40;99.90;;;;;;5013910;28;20714;-79
2022/09/17 06:41:09;;;;;;;6.45;2.33;;;10.40;99.90;;;;;;5005412;28;20243;-79
2022/09/17 06:43:36;;;;;;;5.68;2.40;;;10.40;99.90;;;;;;5012170;28;20201;-79
2022/09/17 06:46:07;;;;;;;4.68;2.20;;;10.40;99.90;;;;;;5012590;28;20220;-78
2022/09/17 06:48:37;;;;;;;4.82;2.40;;;10.40;99.90;;;;;;5013367;28;20820;-79
2022/09/17 06:51:06;;;;;;;3.45;2.17;;;10.50;99.90;;;;;;5013917;28;20310;-79
2022/09/17 06:53:35;;;;;;;7.05;2.40;;;10.40;99.90;;;;;;5013402;28;20206;-79
2022/09/17 06:56:04;;;;;;;2.88;2.10;;;10.50;99.90;;;;;;5009641;28;20599;-78
2022/09/17 06:58:31;;;;;;;3.63;2.20;;;10.50;99.90;;;;;;5008953;28;20205;-79
2022/09/17 07:01:00;;;;;;;3.95;2.42;;;10.50;99.90;;;;;;5011236;28;20248;-79
2022/09/17 07:03:27;;;;;;;4.93;2.30;;;10.50;99.90;;;;;;5009429;28;20285;-79
2022/09/17 07:05:56;;;;;;;3.58;2.45;;;10.50;99.90;;;;;;5009937;28;20228;-78
2022/09/17 07:08:23;;;;;;;5.28;2.60;;;10.50;99.90;;;;;;5012098;28;20277;-81
2022/09/17 07:10:50;;;;;;;4.45;2.60;;;10.40;99.90;;;;;;5011623;28;20295;-81
2022/09/17 07:13:17;;;;;;;2.97;2.55;;;10.40;99.90;;;;;;5007448;28;20202;-81
2022/09/17 07:15:52;;;;;;;3.70;2.95;;;10.40;99.90;;;;;;5011771;28;20482;-81
2022/09/17 07:18:19;;;;;;;4.38;2.75;;;10.40;99.90;;;;;;5012751;28;20195;-81
2022/09/17 07:20:53;;;;;;;4.18;3.15;;;10.30;99.90;;;;;;5013205;28;20242;-82
2022/09/17 07:23:22;;;;;;;3.15;2.70;;;10.20;99.90;;;;;;5011971;28;20203;-82
2022/09/17 07:25:52;;;;;;;2.88;2.58;;;10.20;99.90;;;;;;5001430;28;20707;-83
2022/09/17 07:28:19;;;;;;;2.92;2.60;;;10.10;99.90;;;;;;5013859;28;20541;-82
2022/09/17 07:30:46;;;;;;;3.40;3.10;;;10.10;99.90;;;;;;5016986;28;20275;-84
2022/09/17 07:33:13;;;;;;;5.60;2.95;;;10.00;99.90;;;;;;5014754;28;20209;-83
2022/09/17 07:35:40;;;;;;;4.30;2.97;;;10.00;99.90;;;;;;5012702;28;20340;-83
2022/09/17 07:38:07;;;;;;;5.13;3.50;;;10.00;99.90;;;;;;5011505;28;20205;-83
2022/09/17 07:40:36;;;;;;;4.85;2.92;;;9.90;99.90;;;;;;5012742;28;20235;-82
2022/09/17 07:43:03;;;;;;;7.63;4.68;;;10.00;99.90;;;;;;5007601;28;20696;-82
2022/09/17 07:45:30;;;;;;;4.70;3.55;;;9.90;99.90;;;;;;5010935;28;20223;-82
2022/09/17 07:47:57;;;;;;;4.15;3.22;;;9.80;99.90;;;;;;5011931;28;20211;-81
2022/09/17 07:50:24;;;;;;;4.20;3.75;;;9.90;99.90;;;;;;5012363;28;20228;-81
2022/09/17 07:52:51;;;;;;;6.25;3.33;;;9.90;99.90;;;;;;5005403;28;20303;-81
2022/09/17 07:55:19;;;;;;;3.50;3.15;;;9.90;99.90;;;;;;5010468;28;20262;-81
2022/09/17 07:57:52;;;;;;;3.53;3.15;;;10.00;99.90;;;;;;5012343;28;20227;-81
2022/09/17 08:00:19;;;;;;;3.80;3.40;;;10.00;99.90;;;;;;5012423;28;20272;-82
2022/09/17 08:02:52;;;;;;;4.47;3.15;;;10.10;99.90;;;;;;5012051;28;20217;-80
2022/09/17 08:05:19;;;;;;;5.40;3.20;;;10.20;99.90;;;;;;5003422;28;20258;-80
2022/09/17 08:07:49;;;;;;;3.50;2.90;;;10.30;99.90;;;;;;5011887;28;20236;-80
2022/09/17 08:10:20;;;;;;;3.22;2.92;;;10.40;99.90;;;;;;5010186;28;20225;-81
2022/09/17 08:12:47;;;;;;;5.32;3.00;;;10.50;99.90;;;;;;4993713;28;20766;-80
2022/09/17 08:15:16;;;;;;;3.70;2.88;;;10.60;99.90;;;;;;5005218;28;20212;-80
2022/09/17 08:17:44;;;;;;;3.55;2.92;;;10.60;99.90;;;;;;5006375;28;20229;-80
2022/09/17 08:20:12;;;;;;;5.15;3.05;;;10.70;99.90;;;;;;5011422;28;20218;-80
2022/09/17 08:22:39;;;;;;;3.35;2.78;;;10.80;99.90;;;;;;5009820;28;20611;-80
2022/09/17 08:25:06;;;;;;;5.07;3.05;;;10.90;99.90;;;;;;5008750;28;20230;-79
2022/09/17 08:27:34;;;;;;;6.22;3.38;;;11.00;99.90;;;;;;5010520;28;20206;-80
2022/09/17 08:30:01;;;;;;;7.30;3.03;;;11.10;99.90;;;;;;5004362;28;20202;-79
2022/09/17 08:32:30;;;;;;;3.17;2.80;;;11.30;99.90;;;;;;5009287;28;20209;-80
2022/09/17 08:34:57;;;;;;;8.30;4.15;;;11.40;99.90;;;;;;5011357;28;20210;-79
2022/09/17 08:37:24;;;;;;;3.35;2.90;;;11.50;99.90;;;;;;5011412;28;20654;-80
2022/09/17 08:39:51;;;;;;;6.03;3.35;;;11.50;99.90;;;;;;5004807;28;20203;-81
2022/09/17 08:42:26;;;;;;;3.97;2.78;;;11.70;99.90;;;;;;4998094;28;20290;-81
2022/09/17 08:44:56;;;;;;;7.18;2.92;;;12.20;99.90;;;;;;5011481;28;20233;-80
2022/09/17 08:47:27;;;;;;;5.00;2.00;;;12.70;99.90;;;;;;5011553;28;20294;-79
2022/09/17 08:49:58;;;;;;;10.53;2.90;;;13.30;99.90;;;;;;5010407;28;20498;-81
2022/09/17 08:52:56;;;;;;;4.40;2.20;;;13.80;99.90;;;;;;5011774;28;20456;-80
2022/09/17 08:55:43;;;;;;;6.90;2.20;;;13.90;99.90;;;;;;4996842;28;20490;-80
2022/09/17 08:58:51;;;;;;;5.40;2.30;;;13.80;99.90;;;;;;4996075;28;20476;-80
2022/09/17 09:01:27;;;;;;;9.55;3.10;;;13.60;99.90;;;;;;5011405;28;20536;-81
2022/09/17 09:04:07;;;;;;;6.07;2.75;;;13.30;99.90;;;;;;5010814;28;20666;-80
2022/09/17 09:06:42;;;;;;;5.72;2.47;;;13.20;99.90;;;;;;5009614;28;20233;-80
2022/09/17 09:09:14;;;;;;;4.90;2.65;;;12.90;99.90;;;;;;4999968;28;20198;-80
2022/09/17 09:11:42;;;;;;;3.80;2.45;;;12.70;99.90;;;;;;5009268;28;20214;-80
2022/09/17 09:14:18;;;;;;;6.60;2.53;;;12.60;99.90;;;;;;5008064;28;20201;-79
2022/09/17 09:16:46;;;;;;;5.20;2.08;;;12.40;99.90;;;;;;5011569;28;20201;-80
2022/09/17 09:19:21;;;;;;;4.38;2.45;;;12.20;99.90;;;;;;5011510;28;20623;-80
2022/09/17 09:22:00;;;;;;;6.15;2.35;;;12.10;99.90;;;;;;5014103;28;20746;-79
2022/09/17 09:24:35;;;;;;;10.23;3.10;;;12.00;99.90;;;;;;5013405;28;20313;-80
2022/09/17 09:27:15;;;;;;;4.95;2.53;;;12.00;99.90;;;;;;5000835;28;20224;-80
2022/09/17 09:29:50;;;;;;;4.40;2.25;;;12.10;99.90;;;;;;5015102;28;20201;-80
2022/09/17 09:32:28;;;;;;;8.02;2.30;;;12.20;99.90;;;;;;5014074;28;20659;-79
2022/09/17 09:34:57;;;;;;;5.05;2.30;;;12.30;99.90;;;;;;5014724;28;20205;-80
2022/09/17 09:37:30;;;;;;;6.97;2.70;;;12.30;99.90;;;;;;5015112;28;20289;-79
2022/09/17 09:40:03;;;;;;;4.25;2.15;;;12.40;99.90;;;;;;4995952;28;20215;-79
2022/09/17 09:42:32;;;;;;;4.80;2.30;;;12.40;99.90;;;;;;5005105;28;20199;-79
2022/09/17 09:45:03;;;;;;;4.28;2.35;;;12.50;99.90;;;;;;5014217;28;20209;-78
2022/09/17 09:47:41;;;;;;;4.30;2.17;;;12.50;99.90;;;;;;5013996;28;20232;-79
2022/09/17 09:50:23;;;;;;;5.38;2.63;;;12.60;99.90;;;;;;4995364;28;20314;-79
2022/09/17 09:53:04;;;;;;;4.10;2.00;;;12.70;99.90;;;;;;5002655;28;20633;-79
2022/09/17 09:55:54;;;;;;;4.40;2.42;;;12.80;99.90;;;;;;4997509;28;20242;-79
2022/09/17 09:58:31;;;;;;;4.82;2.58;;;12.80;99.90;;;;;;5011496;28;20288;-80
2022/09/17 10:00:58;;;;;;;5.93;2.25;;;12.80;99.90;;;;;;5014351;28;20928;-78
2022/09/17 10:03:30;;;;;;;4.20;2.35;;;12.80;99.90;;;;;;5012551;28;20553;-79
2022/09/17 10:05:59;;;;;;;6.13;2.50;;;12.70;99.90;;;;;;5012192;28;20317;-79
2022/09/17 10:08:30;;;;;;;7.70;2.60;;;12.60;99.90;;;;;;5014144;28;20301;-79
2022/09/17 10:11:00;;;;;;;5.47;2.78;;;12.50;99.90;;;;;;5012849;28;20305;-79
2022/09/17 10:13:29;;;;;;;3.35;2.25;;;12.50;99.90;;;;;;5010863;28;20206;-78
2022/09/17 10:15:56;;;;;;;4.00;1.92;;;12.50;99.90;;;;;;5014063;28;20245;-79
2022/09/17 10:18:26;;;;;;;3.83;2.20;;;12.40;99.90;;;;;;5013219;28;20281;-79
2022/09/17 10:20:58;;;;;;;3.28;2.10;;;12.40;99.90;;;;;;5014023;28;20254;-78
2022/09/17 10:23:30;;;;;;;6.40;2.55;;;12.50;99.90;;;;;;5011241;28;20212;-78
2022/09/17 10:25:57;;;;;;;4.63;2.40;;;12.90;99.90;;;;;;5013903;28;20786;-78
2022/09/17 10:28:32;;;;;;;2.53;1.90;;;12.80;99.90;;;;;;5011089;28;20202;-79
2022/09/17 10:31:02;;;;;;;7.30;2.13;;;13.00;99.90;;;;;;5013945;28;20230;-79
2022/09/17 10:33:30;;;;;;;3.27;1.90;;;13.30;99.90;;;;;;5012230;28;20467;-78
2022/09/17 10:36:01;;;;;;;3.43;1.80;;;13.80;99.90;;;;;;5013820;28;20455;-79
2022/09/17 10:38:32;;;;;;;4.00;2.10;;;14.30;99.90;;;;;;5014336;28;20447;-79
2022/09/17 10:41:20;;;;;;;4.07;1.80;;;15.00;99.90;;;;;;5013053;28;20486;-79
2022/09/17 10:43:48;;;;;;;7.00;1.90;;;15.50;99.90;;;;;;5010373;28;20493;-79
2022/09/17 10:46:18;;;;;;;6.83;1.70;;;15.50;99.90;;;;;;5013433;28;21062;-79
2022/09/17 10:48:54;;;;;;;5.07;2.00;;;15.50;99.90;;;;;;5012540;28;20515;-80
2022/09/17 10:51:24;;;;;;;4.70;1.67;;;16.10;99.90;;;;;;5008695;28;20473;-80
2022/09/17 10:54:07;;;;;;;3.50;1.50;;;16.40;99.90;;;;;;5004004;28;20485;-80
2022/09/17 10:56:36;;;;;;;3.13;1.40;;;16.50;99.90;;;;;;5015750;28;20449;-80
2022/09/17 10:59:20;;;;;;;3.40;1.47;;;16.60;99.90;;;;;;5013384;28;20964;-80
2022/09/17 11:01:56;;;;;;;3.03;1.70;;;16.60;99.90;;;;;;5012312;28;20547;-79
2022/09/17 11:04:35;;;;;;;4.27;1.53;;;16.50;99.90;;;;;;5009647;28;20515;-79
2022/09/17 11:07:29;;;;;;;3.10;1.67;;;16.80;99.90;;;;;;5012703;28;21209;-79
2022/09/17 11:10:06;;;;;;;2.43;1.50;;;17.00;99.90;;;;;;5004040;28;20480;-79
2022/09/17 11:12:42;;;;;;;3.80;2.00;;;16.90;99.90;;;;;;5010886;28;20509;-79
2022/09/17 11:15:28;;;;;;;3.20;1.53;;;16.80;99.90;;;;;;5010705;28;20453;-79
2022/09/17 11:18:12;;;;;;;3.27;1.30;;;16.90;99.90;;;;;;5013360;28;20852;-80
2022/09/17 11:20:56;;;;;;;5.87;1.90;;;17.30;99.90;;;;;;5012956;28;20477;-79
2022/09/17 11:23:42;;;;;;;3.50;1.30;;;17.10;99.90;;;;;;5011287;28;20460;-80
2022/09/17 11:26:17;;;;;;;2.53;1.40;;;16.80;99.90;;;;;;5012436;28;20884;-79
2022/09/17 11:28:57;;;;;;;4.30;1.77;;;16.50;99.90;;;;;;5013027;28;20892;-80
2022/09/17 11:31:34;;;;;;;4.77;1.97;;;16.30;99.90;;;;;;5003636;28;20464;-79
2022/09/17 11:34:29;;;;;;;2.40;1.40;;;16.30;99.90;;;;;;5011403;28;20968;-79
2022/09/17 11:37:01;;;;;;;2.87;1.80;;;15.80;99.90;;;;;;4980601;28;20485;-79
2022/09/17 11:39:36;;;;;;;2.00;1.47;;;15.60;99.90;;;;;;5011520;28;20468;-79
2022/09/17 11:42:12;;;;;;;4.83;1.70;;;15.80;99.90;;;;;;5008937;28;20480;-79
2022/09/17 11:44:45;;;;;;;4.60;1.87;;;15.90;99.90;;;;;;5009384;28;20537;-79
2022/09/17 11:47:18;;;;;;;3.20;1.70;;;15.90;99.90;;;;;;5012866;28;20986;-79
2022/09/17 11:49:50;;;;;;;4.10;1.60;;;15.70;99.90;;;;;;4993407;28;20497;-79
2022/09/17 11:52:21;;;;;;;2.27;1.57;;;15.50;99.90;;;;;;5008974;28;20851;-79
2022/09/17 11:54:54;;;;;;;2.93;1.43;;;15.40;99.90;;;;;;5007183;28;20472;-79
2022/09/17 11:57:27;;;;;;;4.40;1.93;;;15.30;99.90;;;;;;5010594;28;20543;-83
2022/09/17 12:00:00;;;;;;;4.37;1.70;;;15.10;99.90;;;;;;4993361;28;20493;-82
2022/09/17 12:02:40;;;;;;;2.63;1.50;;;14.90;99.90;;;;;;4994190;28;20545;-83
2022/09/17 12:05:13;;;;;;;2.13;1.50;;;14.70;99.90;;;;;;5007097;28;20464;-82
2022/09/17 12:07:48;;;;;;;2.90;1.80;;;14.50;99.90;;;;;;5011467;28;20482;-82
2022/09/17 12:10:35;;;;;;;2.50;1.50;;;14.40;99.90;;;;;;4992529;28;20508;-82
2022/09/17 12:13:23;;;;;;;3.10;1.43;;;14.40;99.90;;;;;;4998327;28;20475;-82
2022/09/17 12:15:55;;;;;;;2.00;1.30;;;14.70;99.90;;;;;;4992683;28;20442;-81
2022/09/17 12:18:31;;;;;;;1.97;1.30;;;15.00;99.90;;;;;;5008964;28;20457;-82
2022/09/17 12:21:01;;;;;;;2.23;1.20;;;15.20;99.90;;;;;;5009398;28;20555;-82
2022/09/17 12:23:37;;;;;;;3.20;1.40;;;15.20;99.90;;;;;;5010399;28;20442;-83
2022/09/17 12:26:17;;;;;;;5.60;1.47;;;15.00;99.90;;;;;;5010929;28;20543;-83
2022/09/17 12:28:53;;;;;;;3.40;1.50;;;14.80;99.90;;;;;;5012052;28;20458;-82
2022/09/17 12:31:27;;;;;;;2.10;1.33;;;14.90;99.90;;;;;;5011236;28;21025;-82
2022/09/17 12:34:00;;;;;;;2.10;1.63;;;15.10;99.90;;;;;;5010125;28;21011;-82
2022/09/17 12:36:37;;;;;;;2.50;1.57;;;15.40;99.90;;;;;;4992664;28;20454;-82
2022/09/17 12:39:34;;;;;;;4.90;1.67;;;15.60;99.90;;;;;;5005670;28;20441;-83
2022/09/17 12:42:12;;;;;;;3.27;1.67;;;15.60;99.90;;;;;;4994988;28;20464;-81
2022/09/17 12:45:05;;;;;;;2.63;1.50;;;15.30;99.90;;;;;;5010966;28;20452;-82
2022/09/17 12:48:11;;;;;;;2.13;1.20;;;15.20;99.90;;;;;;4992547;28;20500;-81
2022/09/17 12:50:51;;;;;;;2.40;1.40;;;15.00;99.90;;;;;;5002735;28;20470;-82
2022/09/17 12:53:25;;;;;;;1.50;1.07;;;15.20;99.90;;;;;;5009881;28;20476;-81
2022/09/17 12:56:02;;;;;;;1.10;0.80;;;15.70;99.90;;;;;;5006762;28;20892;-81
2022/09/17 12:58:42;;;;;;;2.60;0.97;;;16.00;99.90;;;;;;5011743;28;20487;-80
2022/09/17 13:01:18;;;;;;;1.63;1.10;;;16.30;99.90;;;;;;5010468;28;20501;-81
2022/09/17 13:03:50;;;;;;;1.80;1.10;;;16.40;99.90;;;;;;5010397;28;20476;-80
2022/09/17 13:06:58;;;;;;;2.10;1.40;;;16.20;99.90;;;;;;5011374;28;20491;-81
2022/09/17 13:09:53;;;;;;;3.27;1.30;;;16.20;99.90;;;;;;5000876;28;20481;-80
2022/09/17 13:12:29;;;;;;;1.80;1.10;;;16.00;99.90;;;;;;5011394;28;20481;-80